UBBBLTAF

Guest
Details From UBBB - Heydar Aliyev
To LTAF - Adana
Flight Number -
Tags Decoded
Created
Modified
Stats Distance 757 nm / 1,401 km
Max Altitude 0 ft / 0 m
Waypoints 5
Social Downloads 0
Likes 0
Share VATSIM

Download

Looking for another format? Having issues loading an existing format? Contact us
Advertisement - Login to hide

Notes

Decoded

Route

UBBB OITT LTCI LTCC LTAF

ID Type Via Altitude Latitude Longitude Leg Dist Tot Dist Heading (true) Name
O UBBB APT - 0 ft / 0 m 40.48000˚ 50.03500˚ - 0 nm - -
OITT APT - 0 ft / 0 m 38.14227˚ 46.21870˚ 226 nm 226 nm 233° / 230° -
LTCI APT - 0 ft / 0 m 38.45843˚ 43.32267˚ 137 nm 363 nm 279° / 277° -
LTCC APT - 0 ft / 0 m 37.90915˚ 40.19498˚ 151 nm 515 nm 258° / 256° -
O LTAF APT - 0 ft / 0 m 36.97482˚ 35.26802˚ 241 nm 756 nm 258° / 255° -

Altitude Profile

Advertisement - Login to hide

Weather


0- 5 10 15 20 25 30 35+ Temperature / ° C

Clouds and Precipitation
Forecast for 2017-12-12 00:00 UTC. Updated 2 hours ago

Ground ~20,000 ft ~40,000 ft Winds

UBBB

Details ICAO UBBB (GYD)
Name HEYDAR ALIYEV
Region Azerbiajan
Timezone Asia/Baku (UTC+4.0)
Stats Elevation 10 ft / 3 m (AMSL)
Location 40.470000° 50.052083°
Runways 2
Magnetic Variation 6.234° E

METAR

UBBB 112030Z 35016KT CAVOK 08/05 Q1028 R88/290060 NOSIG

Decode

TAF

TAF UBBB 111709Z 1118/1218 33016G26KT 9999 BKN010 OVC030 TX11/1209Z TN07/1202Z TEMPO 1118/1122 -RA BKN007 OVC020 BECMG 1122/1124 35010KT SCT010 BKN030 TEMPO 1200/1206 VRB04KT BECMG 1206/1208 16008KT SCT030 BKN100

Decode

Departure Runways

ID Width Length Bearing (true) Bearing (mag) Surface Threshold Offset Overrun Length
16 197 ft / 60 m 9,110 ft / 2,777 m 159.17° 152.94° Asphalt 0 ft / 0 m 1,312 ft / 400 m
18 167 ft / 51 m 10,947 ft / 3,337 m 180.00° 173.77° Concrete 0 ft / 0 m 1,312 ft / 400 m
34 197 ft / 60 m 9,110 ft / 2,777 m 339.18° 332.95° Asphalt 0 ft / 0 m 656 ft / 200 m
36 167 ft / 51 m 10,947 ft / 3,337 m 0.00° 353.77° Concrete 444 ft / 135 m 541 ft / 165 m

LTAF

Details ICAO LTAF (ADA)
Name ADANA
Region Turkey
Timezone Europe/Istanbul (UTC+3.0)
Stats Elevation 65 ft / 20 m (AMSL)
Location 36.982142° 35.280394°
Runways 1
Magnetic Variation 5.352° E

METAR

LTAF 112020Z 01004KT 4000 BR NSC 09/06 Q1026 NOSIG

Decode

TAF

Not found

Destination Runways

ID Width Length Bearing (true) Bearing (mag) Surface Threshold Offset Overrun Length
05 148 ft / 45 m 8,979 ft / 2,737 m 53.45° 48.10° Asphalt 0 ft / 0 m 197 ft / 60 m
23 148 ft / 45 m 8,979 ft / 2,737 m 233.47° 228.12° Asphalt 0 ft / 0 m 197 ft / 60 m

Approach Navaids

Runway Type Ident Frequency Range Bearing (true) Bearing (mag) Slope Elevation
05 Localiser IADA 108.70 MHz 18 nm / 33 km 53.01° 47.66° - 65 ft / 20 m (AMSL)
05 Glidescope IADA 108.70 MHz 10 nm / 19 km 53.46° 48.11° 3.00° 65 ft / 20 m (AMSL)